Time;durP1;ratioP1;P1;durP2;ratioP2;P2;SDS_P1;SDS_P2;PMS_P1;PMS_P2;Temp;Humidity;BMP_temperature;BMP_pressure;BME280_temperature;BME280_humidity;BME280_pressure;Samples;Min_cycle;Max_cycle;Signal;HPM_P1;HPM_P2
2023/01/11 00:00:10;;;;;;;12.93;4.43;;;;;;;;;;6200575;23;20202;-89
2023/01/11 00:03:19;;;;;;;15.90;4.63;;;;;;;;;;6185247;23;20163;-88
2023/01/11 00:06:26;;;;;;;13.87;4.60;;;;;;;;;;6184846;23;20555;-86
2023/01/11 00:09:33;;;;;;;13.30;4.60;;;;;;;;;;6183142;23;20167;-87
2023/01/11 00:12:38;;;;;;;15.57;4.73;;;;;;;;;;6184856;23;20188;-90
2023/01/11 00:15:45;;;;;;;9.53;4.10;;;;;;;;;;6182063;23;20172;-88
2023/01/11 00:18:51;;;;;;;11.87;4.00;;;;;;;;;;6211810;23;20191;-90
2023/01/11 00:21:56;;;;;;;14.00;4.13;;;;;;;;;;6214937;23;20206;-91
2023/01/11 00:25:01;;;;;;;14.47;4.70;;;;;;;;;;6212712;23;20239;-86
2023/01/11 00:28:07;;;;;;;10.70;4.33;;;;;;;;;;6212849;23;20163;-87
2023/01/11 00:31:14;;;;;;;15.47;4.70;;;;;;;;;;6212595;23;20258;-89
2023/01/11 00:34:19;;;;;;;11.77;4.37;;;;;;;;;;6213707;23;20160;-89
2023/01/11 00:37:25;;;;;;;12.40;4.50;;;;;;;;;;6213990;23;20220;-88
2023/01/11 00:40:31;;;;;;;15.07;4.03;;;;;;;;;;6211883;23;20514;-89
2023/01/11 00:50:23;;;;;;;19.23;5.47;;;;;;;;;;6212541;22;20175;-86
2023/01/11 00:53:28;;;;;;;10.23;4.10;;;;;;;;;;6211025;23;20162;-87
2023/01/11 00:56:34;;;;;;;13.30;5.00;;;;;;;;;;6212203;23;20210;-88
2023/01/11 00:59:40;;;;;;;13.53;4.17;;;;;;;;;;6213148;22;20170;-87
2023/01/11 01:02:48;;;;;;;11.83;3.93;;;;;;;;;;6212587;23;20151;-88
2023/01/11 01:05:56;;;;;;;9.83;3.50;;;;;;;;;;6233616;23;20163;-88
2023/01/11 01:09:01;;;;;;;13.10;4.00;;;;;;;;;;6210446;23;20630;-86
2023/01/11 01:12:08;;;;;;;10.53;4.43;;;;;;;;;;6210788;23;20151;-91
2023/01/11 01:15:12;;;;;;;14.73;4.53;;;;;;;;;;6208835;23;20167;-88
2023/01/11 01:18:19;;;;;;;9.77;4.33;;;;;;;;;;6208359;23;20213;-88
2023/01/11 01:21:24;;;;;;;11.20;4.20;;;;;;;;;;6209637;23;20191;-88
2023/01/11 01:24:29;;;;;;;10.37;4.13;;;;;;;;;;6209276;23;20210;-89
2023/01/11 01:27:34;;;;;;;16.77;4.43;;;;;;;;;;6208488;23;20227;-89
2023/01/11 01:30:40;;;;;;;15.03;4.73;;;;;;;;;;6209209;23;20168;-88
2023/01/11 01:33:47;;;;;;;12.60;4.33;;;;;;;;;;6211199;23;20210;-87
2023/01/11 01:36:52;;;;;;;13.33;4.00;;;;;;;;;;6207709;23;20163;-88
2023/01/11 01:39:57;;;;;;;17.03;4.40;;;;;;;;;;6208445;23;20167;-91
2023/01/11 01:43:02;;;;;;;11.07;3.60;;;;;;;;;;6208680;22;20733;-85
2023/01/11 01:46:06;;;;;;;12.40;3.77;;;;;;;;;;6208019;23;20171;-88
2023/01/11 01:49:15;;;;;;;11.73;3.43;;;;;;;;;;6207634;23;20167;-85
2023/01/11 01:52:27;;;;;;;16.00;4.30;;;;;;;;;;6207664;23;20183;-89
2023/01/11 01:55:34;;;;;;;9.40;4.53;;;;;;;;;;6207507;23;20171;-89
2023/01/11 01:58:40;;;;;;;12.17;3.87;;;;;;;;;;6208197;23;20619;-87
2023/01/11 02:01:48;;;;;;;14.47;4.27;;;;;;;;;;6207871;23;20195;-88
2023/01/11 02:04:55;;;;;;;11.50;4.30;;;;;;;;;;6207258;23;20171;-87
2023/01/11 02:08:01;;;;;;;10.17;3.97;;;;;;;;;;6209733;23;20196;-87
2023/01/11 02:11:28;;;;;;;13.50;4.30;;;;;;;;;;6208715;23;20171;-88
2023/01/11 02:14:32;;;;;;;11.37;3.90;;;;;;;;;;6210771;23;20151;-88
2023/01/11 02:17:37;;;;;;;10.43;4.00;;;;;;;;;;6208778;23;20187;-91
2023/01/11 02:20:51;;;;;;;10.63;3.97;;;;;;;;;;6208475;23;20187;-87
2023/01/11 02:24:15;;;;;;;15.87;3.70;;;;;;;;;;6209955;23;20171;-87
2023/01/11 02:27:30;;;;;;;9.17;3.53;;;;;;;;;;6209195;23;20175;-88
2023/01/11 02:30:42;;;;;;;8.53;3.43;;;;;;;;;;6209034;23;20175;-89
2023/01/11 02:33:52;;;;;;;12.80;3.27;;;;;;;;;;6209988;23;20167;-88
2023/01/11 02:37:09;;;;;;;7.17;3.37;;;;;;;;;;6207879;23;20242;-87
2023/01/11 02:40:17;;;;;;;9.17;3.30;;;;;;;;;;6208997;23;20167;-88
2023/01/11 02:46:54;;;;;;;9.50;3.80;;;;;;;;;;6207675;23;20167;-89
2023/01/11 02:50:03;;;;;;;6.37;3.10;;;;;;;;;;6208639;23;20167;-90
2023/01/11 02:53:13;;;;;;;8.53;3.63;;;;;;;;;;6206979;23;20175;-87
2023/01/11 02:56:20;;;;;;;9.93;3.80;;;;;;;;;;6207869;23;20262;-89
2023/01/11 02:59:30;;;;;;;8.47;4.03;;;;;;;;;;6208798;22;20159;-87
2023/01/11 03:02:36;;;;;;;8.83;3.53;;;;;;;;;;6227674;22;20199;-90
2023/01/11 03:05:44;;;;;;;9.60;3.50;;;;;;;;;;6209991;23;20626;-87
2023/01/11 03:09:03;;;;;;;9.43;3.87;;;;;;;;;;6208805;23;20171;-87
2023/01/11 03:15:52;;;;;;;7.67;3.63;;;;;;;;;;6211156;23;20198;-88
2023/01/11 03:19:07;;;;;;;8.57;3.40;;;;;;;;;;6212212;23;20191;-87
2023/01/11 03:22:17;;;;;;;8.07;3.63;;;;;;;;;;6210253;22;20191;-90
2023/01/11 03:25:23;;;;;;;8.07;3.00;;;;;;;;;;6212018;23;20223;-87
2023/01/11 03:28:33;;;;;;;8.10;3.50;;;;;;;;;;6228809;22;20647;-89
2023/01/11 03:31:39;;;;;;;12.57;3.37;;;;;;;;;;6210902;23;20171;-88
2023/01/11 03:34:48;;;;;;;6.50;3.50;;;;;;;;;;6209576;23;20167;-89
2023/01/11 03:38:00;;;;;;;7.60;3.00;;;;;;;;;;6208539;22;20654;-87
2023/01/11 03:41:08;;;;;;;9.67;3.63;;;;;;;;;;6210018;23;20190;-90
2023/01/11 03:44:14;;;;;;;10.17;3.03;;;;;;;;;;6212191;23;20302;-89
2023/01/11 03:47:20;;;;;;;12.93;3.60;;;;;;;;;;6210525;23;20279;-88
2023/01/11 03:50:28;;;;;;;5.97;3.10;;;;;;;;;;6210562;23;20496;-89
2023/01/11 03:53:36;;;;;;;9.70;3.40;;;;;;;;;;6210921;23;20242;-87
2023/01/11 03:56:43;;;;;;;8.07;3.20;;;;;;;;;;6228050;23;20170;-90
2023/01/11 03:59:49;;;;;;;10.70;3.77;;;;;;;;;;6209888;23;20504;-89
2023/01/11 04:02:53;;;;;;;10.97;3.63;;;;;;;;;;6209728;23;20198;-88
2023/01/11 04:06:01;;;;;;;11.23;3.73;;;;;;;;;;6210110;23;20171;-87
2023/01/11 04:09:11;;;;;;;8.50;3.43;;;;;;;;;;6211448;22;20155;-91
2023/01/11 04:12:16;;;;;;;10.97;3.90;;;;;;;;;;6209776;22;20218;-89
2023/01/11 04:15:21;;;;;;;9.73;3.70;;;;;;;;;;6210907;23;20170;-88
2023/01/11 04:18:26;;;;;;;9.60;3.63;;;;;;;;;;6210678;23;20311;-87
2023/01/11 04:21:32;;;;;;;14.57;3.77;;;;;;;;;;6209609;23;20195;-90
2023/01/11 04:24:38;;;;;;;8.60;3.60;;;;;;;;;;6209433;22;20521;-87
2023/01/11 04:27:43;;;;;;;7.63;3.90;;;;;;;;;;6208550;22;20170;-87
2023/01/11 04:30:48;;;;;;;16.00;4.10;;;;;;;;;;6208554;23;20186;-88
2023/01/11 04:33:53;;;;;;;6.93;3.73;;;;;;;;;;6211255;23;20164;-86
2023/01/11 04:37:03;;;;;;;10.40;4.10;;;;;;;;;;6207899;23;20278;-87
2023/01/11 04:40:09;;;;;;;9.87;4.30;;;;;;;;;;6210165;22;20159;-88
2023/01/11 04:43:14;;;;;;;7.63;4.10;;;;;;;;;;6209490;22;20261;-89
2023/01/11 04:46:19;;;;;;;15.03;4.00;;;;;;;;;;6208509;23;20508;-90
2023/01/11 04:49:25;;;;;;;9.83;3.97;;;;;;;;;;6207042;23;20166;-89
2023/01/11 04:52:32;;;;;;;8.33;3.90;;;;;;;;;;6207317;23;20155;-88
2023/01/11 04:55:38;;;;;;;8.83;3.70;;;;;;;;;;6206888;22;20156;-88
2023/01/11 04:58:43;;;;;;;8.17;3.60;;;;;;;;;;6205743;22;20171;-90
2023/01/11 05:01:49;;;;;;;11.10;3.77;;;;;;;;;;6206380;23;20186;-89
2023/01/11 05:04:53;;;;;;;8.77;3.70;;;;;;;;;;6206401;23;20170;-89
2023/01/11 05:08:00;;;;;;;9.17;3.90;;;;;;;;;;6206241;23;20719;-88
2023/01/11 05:11:05;;;;;;;11.30;3.80;;;;;;;;;;6206774;22;20182;-87
2023/01/11 05:14:12;;;;;;;12.23;3.83;;;;;;;;;;6207959;22;20187;-89
2023/01/11 05:17:17;;;;;;;11.63;3.90;;;;;;;;;;6206070;23;20194;-88
2023/01/11 05:20:22;;;;;;;10.57;4.03;;;;;;;;;;6207160;23;20171;-88
2023/01/11 05:23:29;;;;;;;9.63;5.50;;;;;;;;;;6208362;23;20174;-88
2023/01/11 05:26:35;;;;;;;10.93;4.63;;;;;;;;;;6207225;22;20166;-88
2023/01/11 05:29:42;;;;;;;13.63;4.50;;;;;;;;;;6207888;22;20619;-89
2023/01/11 05:32:47;;;;;;;16.53;4.73;;;;;;;;;;6207706;23;20174;-89
2023/01/11 05:35:57;;;;;;;13.77;5.03;;;;;;;;;;6211106;23;20162;-89
2023/01/11 05:39:05;;;;;;;10.90;3.90;;;;;;;;;;6211523;23;20163;-87
2023/01/11 05:42:10;;;;;;;9.83;4.17;;;;;;;;;;6209970;22;20270;-88
2023/01/11 05:45:32;;;;;;;14.87;3.70;;;;;;;;;;6213042;22;20159;-86
2023/01/11 05:48:42;;;;;;;13.50;3.50;;;;;;;;;;6213630;23;20167;-87
2023/01/11 05:51:48;;;;;;;49.43;18.57;;;;;;;;;;6212969;23;20247;-87
2023/01/11 05:54:54;;;;;;;13.63;4.40;;;;;;;;;;6210703;23;20683;-87
2023/01/11 05:58:01;;;;;;;11.27;4.07;;;;;;;;;;6212201;23;20333;-88
2023/01/11 06:01:06;;;;;;;10.57;3.67;;;;;;;;;;6212122;23;20179;-87
2023/01/11 06:04:11;;;;;;;11.00;3.43;;;;;;;;;;6212229;23;20237;-87
2023/01/11 06:07:17;;;;;;;11.73;5.17;;;;;;;;;;6213970;23;20175;-88
2023/01/11 06:10:23;;;;;;;11.60;4.03;;;;;;;;;;6213040;22;20170;-89
2023/01/11 06:13:32;;;;;;;15.33;7.30;;;;;;;;;;6212067;22;20496;-87
2023/01/11 06:16:37;;;;;;;14.70;6.93;;;;;;;;;;6213961;23;20166;-88
2023/01/11 06:19:43;;;;;;;12.00;4.47;;;;;;;;;;6200768;23;20234;-87
2023/01/11 06:22:48;;;;;;;20.20;9.40;;;;;;;;;;6184875;23;20231;-88
2023/01/11 06:25:54;;;;;;;14.67;4.77;;;;;;;;;;6184090;23;20287;-89
2023/01/11 06:29:00;;;;;;;10.97;4.60;;;;;;;;;;6182035;23;20662;-89
2023/01/11 06:32:06;;;;;;;9.40;4.00;;;;;;;;;;6182816;23;20288;-88
2023/01/11 06:35:10;;;;;;;10.47;4.40;;;;;;;;;;6183359;23;20190;-89
2023/01/11 06:38:16;;;;;;;7.10;3.73;;;;;;;;;;6183343;23;20175;-89
2023/01/11 06:41:23;;;;;;;12.43;4.50;;;;;;;;;;6183786;23;20176;-87
2023/01/11 06:44:28;;;;;;;8.00;4.03;;;;;;;;;;6181438;23;20227;-89
2023/01/11 06:47:33;;;;;;;9.90;3.93;;;;;;;;;;6181213;23;20147;-88
2023/01/11 06:50:39;;;;;;;10.43;4.03;;;;;;;;;;6182254;23;20168;-86
2023/01/11 06:53:45;;;;;;;11.37;4.30;;;;;;;;;;6182167;23;20250;-87
2023/01/11 06:56:51;;;;;;;8.53;4.40;;;;;;;;;;6182054;23;20231;-87
2023/01/11 06:59:56;;;;;;;10.93;4.23;;;;;;;;;;6182083;23;20172;-88
2023/01/11 07:03:03;;;;;;;13.47;3.93;;;;;;;;;;6182351;23;20184;-88
2023/01/11 07:06:23;;;;;;;8.40;4.57;;;;;;;;;;6188375;23;20195;-88
2023/01/11 07:09:28;;;;;;;9.23;4.70;;;;;;;;;;6179979;23;20188;-87
2023/01/11 07:12:37;;;;;;;12.93;5.10;;;;;;;;;;6180171;23;20172;-89
2023/01/11 07:15:43;;;;;;;12.37;5.27;;;;;;;;;;6178398;23;20172;-88
2023/01/11 07:18:48;;;;;;;16.27;6.70;;;;;;;;;;6202326;23;20233;-89
2023/01/11 07:21:53;;;;;;;15.60;6.90;;;;;;;;;;6209479;23;20322;-87
2023/01/11 07:24:58;;;;;;;11.83;4.87;;;;;;;;;;6210058;23;20171;-89
2023/01/11 07:28:09;;;;;;;10.77;4.67;;;;;;;;;;6211063;23;20167;-87
2023/01/11 07:31:14;;;;;;;10.83;4.97;;;;;;;;;;6208384;23;20662;-88
2023/01/11 07:34:19;;;;;;;11.80;5.50;;;;;;;;;;6210909;23;20175;-88
2023/01/11 07:37:25;;;;;;;9.00;5.10;;;;;;;;;;6209186;22;20174;-88
2023/01/11 07:40:30;;;;;;;13.03;4.53;;;;;;;;;;6210086;23;20615;-89
2023/01/11 07:43:36;;;;;;;7.70;4.17;;;;;;;;;;6209930;22;20666;-90
2023/01/11 07:46:41;;;;;;;10.97;4.57;;;;;;;;;;6209440;23;20229;-88
2023/01/11 07:49:46;;;;;;;8.97;4.33;;;;;;;;;;6208237;23;20250;-90
2023/01/11 07:52:52;;;;;;;13.03;4.47;;;;;;;;;;6208926;23;20178;-89
2023/01/11 07:55:57;;;;;;;8.97;4.73;;;;;;;;;;6210763;23;20233;-88
2023/01/11 07:59:05;;;;;;;10.93;5.17;;;;;;;;;;6214539;23;20489;-89
2023/01/11 08:02:11;;;;;;;8.90;4.63;;;;;;;;;;6169827;23;20216;-89
2023/01/11 08:05:15;;;;;;;11.93;4.80;;;;;;;;;;6122688;23;20241;-88
2023/01/11 08:08:21;;;;;;;9.37;4.57;;;;;;;;;;6137387;23;20233;-90
2023/01/11 08:14:51;;;;;;;10.97;5.07;;;;;;;;;;6121115;23;20192;-90
2023/01/11 08:17:56;;;;;;;7.33;4.17;;;;;;;;;;6118472;23;20244;-89
2023/01/11 08:21:01;;;;;;;10.93;4.10;;;;;;;;;;6120802;23;20213;-89
2023/01/11 08:24:06;;;;;;;7.90;3.87;;;;;;;;;;6119030;23;20197;-90
2023/01/11 08:27:11;;;;;;;8.87;3.47;;;;;;;;;;6120201;23;20172;-91
2023/01/11 08:30:19;;;;;;;7.10;4.00;;;;;;;;;;6119510;23;20287;-90
2023/01/11 08:33:24;;;;;;;8.87;3.60;;;;;;;;;;6125425;23;20225;-90
2023/01/11 08:36:31;;;;;;;8.30;4.23;;;;;;;;;;6125139;23;20169;-87
2023/01/11 08:39:40;;;;;;;7.63;3.50;;;;;;;;;;6119952;23;20218;-88
2023/01/11 08:42:45;;;;;;;5.23;3.20;;;;;;;;;;6118983;23;20220;-87
2023/01/11 08:45:52;;;;;;;7.10;3.60;;;;;;;;;;6119873;23;20245;-88
2023/01/11 08:48:56;;;;;;;8.53;3.20;;;;;;;;;;6120170;23;20193;-87
2023/01/11 08:52:02;;;;;;;9.07;3.30;;;;;;;;;;6119498;23;20213;-89
2023/01/11 08:55:07;;;;;;;7.20;3.33;;;;;;;;;;6118736;23;20181;-87
2023/01/11 08:58:12;;;;;;;6.93;3.20;;;;;;;;;;6119065;23;20613;-88
2023/01/11 09:01:19;;;;;;;5.10;2.70;;;;;;;;;;6121152;23;20231;-86
2023/01/11 09:04:25;;;;;;;9.13;3.70;;;;;;;;;;6121710;23;20289;-87
2023/01/11 09:07:30;;;;;;;6.80;3.17;;;;;;;;;;6116603;23;20165;-88
2023/01/11 09:10:35;;;;;;;11.10;3.30;;;;;;;;;;6120631;23;20197;-90
2023/01/11 09:13:40;;;;;;;5.47;2.77;;;;;;;;;;6119457;23;20497;-89
2023/01/11 09:16:47;;;;;;;7.40;3.47;;;;;;;;;;6119204;23;20177;-88
2023/01/11 09:19:52;;;;;;;6.00;2.80;;;;;;;;;;6119755;23;20169;-89
2023/01/11 09:22:58;;;;;;;5.50;3.00;;;;;;;;;;6120674;23;20205;-88
2023/01/11 09:26:03;;;;;;;6.93;2.90;;;;;;;;;;6120159;23;20157;-89
2023/01/11 09:29:08;;;;;;;5.17;3.03;;;;;;;;;;6118675;23;20618;-88
2023/01/11 09:32:15;;;;;;;7.40;3.10;;;;;;;;;;6117712;23;20224;-87
2023/01/11 09:35:21;;;;;;;6.57;3.77;;;;;;;;;;6119515;23;20173;-89
2023/01/11 09:38:28;;;;;;;7.77;3.77;;;;;;;;;;6119788;23;20209;-90
2023/01/11 09:41:39;;;;;;;7.13;3.33;;;;;;;;;;6138468;23;20310;-89
2023/01/11 09:44:49;;;;;;;6.30;3.17;;;;;;;;;;6120334;23;20193;-88
2023/01/11 09:48:02;;;;;;;6.90;3.47;;;;;;;;;;6135831;23;20205;-90
2023/01/11 09:51:07;;;;;;;9.37;3.70;;;;;;;;;;6119354;23;20169;-89
2023/01/11 09:54:18;;;;;;;9.00;4.07;;;;;;;;;;6119102;23;20212;-88
2023/01/11 09:57:30;;;;;;;7.57;3.43;;;;;;;;;;6118918;23;20177;-89
2023/01/11 10:00:41;;;;;;;7.60;3.30;;;;;;;;;;6119948;23;20173;-89
2023/01/11 10:04:05;;;;;;;5.10;2.90;;;;;;;;;;6118750;23;20213;-89
2023/01/11 10:07:21;;;;;;;57.67;15.67;;;;;;;;;;6116767;23;20223;-89
2023/01/11 10:10:32;;;;;;;5.53;2.93;;;;;;;;;;6118595;23;20162;-89
2023/01/11 10:13:44;;;;;;;6.60;3.23;;;;;;;;;;6117942;23;20230;-89
2023/01/11 10:16:54;;;;;;;6.83;2.87;;;;;;;;;;6116716;23;20169;-88
2023/01/11 10:20:03;;;;;;;3.23;2.43;;;;;;;;;;6118093;23;20249;-90
2023/01/11 10:23:12;;;;;;;4.43;2.53;;;;;;;;;;6116857;23;20237;-88
2023/01/11 10:26:26;;;;;;;5.93;2.63;;;;;;;;;;6116578;23;20170;-87
2023/01/11 10:29:48;;;;;;;5.63;2.77;;;;;;;;;;6117425;23;20168;-87
2023/01/11 10:33:05;;;;;;;6.37;2.47;;;;;;;;;;6117772;23;20174;-89
2023/01/11 10:36:29;;;;;;;3.87;2.63;;;;;;;;;;6118054;23;20423;-88
2023/01/11 10:39:58;;;;;;;3.67;2.40;;;;;;;;;;6118944;23;20170;-89
2023/01/11 10:43:07;;;;;;;4.13;2.20;;;;;;;;;;6118853;23;20258;-88
2023/01/11 10:46:14;;;;;;;5.20;2.73;;;;;;;;;;6120029;23;20235;-89
2023/01/11 10:49:30;;;;;;;10.40;4.20;;;;;;;;;;6138246;23;20156;-88
2023/01/11 10:52:40;;;;;;;3.73;2.50;;;;;;;;;;6120617;23;20256;-88
2023/01/11 10:55:47;;;;;;;3.15;2.38;;;;;;;;;;6120236;23;20225;-88
2023/01/11 10:59:05;;;;;;;6.63;2.70;;;;;;;;;;6121239;23;20149;-88
2023/01/11 11:02:19;;;;;;;6.15;2.63;;;;;;;;;;6119987;23;20209;-87
2023/01/11 11:05:31;;;;;;;3.90;2.50;;;;;;;;;;6120104;23;20177;-88
2023/01/11 11:08:40;;;;;;;6.13;2.30;;;;;;;;;;6120786;23;20173;-88
2023/01/11 11:11:51;;;;;;;4.10;2.40;;;;;;;;;;6120969;23;20210;-88
2023/01/11 11:15:03;;;;;;;3.70;2.23;;;;;;;;;;6118929;23;20212;-89
2023/01/11 11:18:09;;;;;;;5.20;2.80;;;;;;;;;;6122557;23;20169;-88
2023/01/11 11:21:21;;;;;;;3.60;2.20;;;;;;;;;;6118910;23;20694;-89
2023/01/11 11:24:31;;;;;;;5.10;2.30;;;;;;;;;;6120710;23;20241;-88
2023/01/11 11:27:39;;;;;;;3.93;2.20;;;;;;;;;;6121173;23;20165;-87
2023/01/11 11:30:47;;;;;;;2.78;2.00;;;;;;;;;;6120937;23;20169;-89
2023/01/11 11:33:52;;;;;;;3.88;2.28;;;;;;;;;;6121016;23;20170;-88
2023/01/11 11:37:00;;;;;;;5.00;2.40;;;;;;;;;;6120647;23;20180;-87
2023/01/11 11:40:27;;;;;;;4.43;2.15;;;;;;;;;;6120160;23;20177;-89
2023/01/11 11:43:33;;;;;;;3.78;2.30;;;;;;;;;;6118754;23;20632;-87
2023/01/11 11:46:38;;;;;;;3.78;1.95;;;;;;;;;;6120921;23;20162;-89
2023/01/11 11:49:44;;;;;;;4.50;2.00;;;;;;;;;;6121573;23;20169;-89
2023/01/11 11:52:53;;;;;;;5.15;3.10;;;;;;;;;;6119873;23;20257;-89
2023/01/11 11:56:06;;;;;;;4.55;2.53;;;;;;;;;;6119352;23;20249;-90
2023/01/11 11:59:14;;;;;;;5.15;2.10;;;;;;;;;;6119651;23;20285;-90
2023/01/11 12:02:23;;;;;;;3.25;1.90;;;;;;;;;;6121100;23;20192;-87
2023/01/11 12:05:28;;;;;;;5.45;2.30;;;;;;;;;;6120814;23;20180;-88
2023/01/11 12:08:35;;;;;;;4.45;1.90;;;;;;;;;;6119291;23;20244;-86
2023/01/11 12:11:42;;;;;;;5.43;2.00;;;;;;;;;;6118768;23;20169;-87
2023/01/11 12:15:02;;;;;;;4.15;2.42;;;;;;;;;;6119923;23;20237;-89
2023/01/11 12:18:15;;;;;;;3.72;1.98;;;;;;;;;;6121036;23;20173;-88
2023/01/11 12:21:22;;;;;;;4.47;2.40;;;;;;;;;;6121116;23;20169;-89
2023/01/11 12:24:27;;;;;;;4.70;2.10;;;;;;;;;;6123385;23;20193;-89
2023/01/11 12:27:42;;;;;;;5.10;2.20;;;;;;;;;;6120610;23;20213;-88
2023/01/11 12:30:50;;;;;;;3.22;2.25;;;;;;;;;;6122194;23;20182;-88
2023/01/11 12:34:02;;;;;;;4.03;2.10;;;;;;;;;;6122911;23;20248;-90
2023/01/11 12:37:13;;;;;;;5.65;2.50;;;;;;;;;;6121667;23;20204;-88
2023/01/11 12:40:21;;;;;;;4.32;2.17;;;;;;;;;;6120841;23;20176;-89
2023/01/11 12:43:37;;;;;;;4.97;2.72;;;;;;;;;;6121327;23;20523;-88
2023/01/11 12:46:47;;;;;;;6.35;2.47;;;;;;;;;;6120965;23;20249;-88
2023/01/11 12:49:55;;;;;;;3.90;2.10;;;;;;;;;;6121230;23;20237;-90
2023/01/11 12:53:16;;;;;;;5.00;2.22;;;;;;;;;;6119731;23;20181;-87
2023/01/11 12:56:33;;;;;;;6.35;2.00;;;;;;;;;;6119930;23;20169;-89
2023/01/11 12:59:55;;;;;;;2.75;1.80;;;;;;;;;;6121916;23;20172;-89
2023/01/11 13:03:17;;;;;;;6.63;2.25;;;;;;;;;;6125061;23;20189;-89
2023/01/11 13:06:31;;;;;;;4.97;2.00;;;;;;;;;;6125516;23;20169;-88
2023/01/11 13:09:45;;;;;;;3.88;1.98;;;;;;;;;;6125017;23;20216;-89
2023/01/11 13:12:54;;;;;;;3.22;2.00;;;;;;;;;;6125561;23;20657;-87
2023/01/11 13:16:08;;;;;;;4.65;2.20;;;;;;;;;;6125318;23;20173;-88
2023/01/11 13:19:17;;;;;;;3.50;1.98;;;;;;;;;;6124703;23;20190;-89
2023/01/11 13:22:27;;;;;;;6.18;2.47;;;;;;;;;;6123630;23;20169;-88
2023/01/11 13:25:34;;;;;;;3.75;2.05;;;;;;;;;;6124222;23;20200;-90
2023/01/11 13:28:41;;;;;;;4.75;2.30;;;;;;;;;;6124444;23;20189;-91
2023/01/11 13:31:53;;;;;;;4.85;2.40;;;;;;;;;;6124175;23;20170;-88
2023/01/11 13:35:01;;;;;;;7.05;2.60;;;;;;;;;;6124544;23;20246;-90
2023/01/11 13:38:11;;;;;;;6.22;2.45;;;;;;;;;;6123991;23;20177;-90
2023/01/11 13:41:19;;;;;;;4.97;2.25;;;;;;;;;;6125875;23;20185;-88
2023/01/11 13:44:32;;;;;;;3.95;1.85;;;;;;;;;;6125031;23;20275;-89
2023/01/11 13:47:43;;;;;;;4.05;2.10;;;;;;;;;;6126033;23;20214;-90
2023/01/11 13:50:52;;;;;;;5.63;2.03;;;;;;;;;;6123596;23;20165;-88
2023/01/11 13:54:00;;;;;;;7.75;2.33;;;;;;;;;;6122268;23;20243;-88
2023/01/11 13:57:07;;;;;;;6.95;3.78;;;;;;;;;;6120239;23;20176;-87
2023/01/11 14:00:21;;;;;;;7.55;3.38;;;;;;;;;;6120668;23;20173;-87
2023/01/11 14:03:30;;;;;;;4.07;2.30;;;;;;;;;;6119801;23;20196;-88
2023/01/11 14:06:48;;;;;;;5.35;2.60;;;;;;;;;;6119503;23;20174;-89
2023/01/11 14:10:08;;;;;;;6.53;3.22;;;;;;;;;;6120664;23;20210;-88
2023/01/11 14:17:01;;;;;;;7.13;3.40;;;;;;;;;;6118922;23;20217;-91
2023/01/11 14:20:15;;;;;;;8.30;3.30;;;;;;;;;;6121335;23;20201;-90
2023/01/11 14:23:21;;;;;;;6.15;3.00;;;;;;;;;;6119988;23;20174;-90
2023/01/11 14:26:36;;;;;;;6.10;3.08;;;;;;;;;;6122672;23;20197;-89
2023/01/11 14:29:57;;;;;;;7.20;3.47;;;;;;;;;;6122071;23;20169;-87
2023/01/11 14:33:14;;;;;;;9.48;3.30;;;;;;;;;;6123458;23;20181;-88
2023/01/11 14:36:34;;;;;;;6.45;2.80;;;;;;;;;;6121288;23;20518;-88
2023/01/11 14:39:47;;;;;;;6.07;2.90;;;;;;;;;;6120496;23;20178;-90
2023/01/11 14:43:11;;;;;;;5.72;2.90;;;;;;;;;;6119681;23;20166;-89
2023/01/11 14:46:40;;;;;;;6.57;3.30;;;;;;;;;;6121763;23;20170;-88
2023/01/11 14:49:54;;;;;;;5.20;3.13;;;;;;;;;;6122310;23;20176;-88
2023/01/11 14:53:03;;;;;;;6.88;3.10;;;;;;;;;;6123924;23;20240;-90
2023/01/11 14:56:23;;;;;;;6.38;2.90;;;;;;;;;;6122847;23;20168;-88
2023/01/11 14:59:48;;;;;;;8.03;3.10;;;;;;;;;;6124101;23;20205;-89
2023/01/11 15:02:55;;;;;;;5.82;3.15;;;;;;;;;;6123833;23;20197;-89
2023/01/11 15:06:02;;;;;;;10.10;3.80;;;;;;;;;;6122508;23;20176;-88
2023/01/11 15:09:27;;;;;;;7.32;3.60;;;;;;;;;;6122236;23;20174;-90
2023/01/11 15:12:33;;;;;;;8.52;4.20;;;;;;;;;;6123633;23;20184;-88
2023/01/11 15:19:05;;;;;;;8.83;4.53;;;;;;;;;;6123259;23;20233;-88
2023/01/11 15:22:21;;;;;;;11.48;4.20;;;;;;;;;;6122977;23;20612;-88
2023/01/11 15:25:27;;;;;;;9.37;4.23;;;;;;;;;;6122857;23;20198;-89
2023/01/11 15:28:34;;;;;;;15.00;6.20;;;;;;;;;;6121848;23;20177;-87
2023/01/11 15:31:48;;;;;;;13.57;5.87;;;;;;;;;;6122395;23;20206;-89
2023/01/11 15:34:54;;;;;;;9.50;5.07;;;;;;;;;;6122791;23;20169;-90
2023/01/11 15:38:01;;;;;;;9.50;5.63;;;;;;;;;;6120336;23;20214;-88
2023/01/11 15:44:36;;;;;;;8.38;4.65;;;;;;;;;;6121783;23;20193;-88
2023/01/11 15:47:50;;;;;;;11.93;5.50;;;;;;;;;;6123094;23;20210;-88
2023/01/11 15:51:14;;;;;;;10.18;5.35;;;;;;;;;;6123394;23;20173;-87
2023/01/11 15:54:40;;;;;;;8.47;4.50;;;;;;;;;;6123049;23;20241;-87
2023/01/11 15:57:58;;;;;;;10.33;5.10;;;;;;;;;;6127172;23;20173;-87
2023/01/11 16:01:23;;;;;;;9.07;4.37;;;;;;;;;;6126924;23;20210;-87
2023/01/11 16:04:47;;;;;;;10.47;4.93;;;;;;;;;;6129550;23;20237;-90
2023/01/11 16:08:00;;;;;;;12.07;5.13;;;;;;;;;;6130184;23;20180;-90
2023/01/11 16:11:13;;;;;;;11.77;6.75;;;;;;;;;;6127550;23;20169;-89
2023/01/11 16:14:29;;;;;;;20.40;10.37;;;;;;;;;;6129017;23;20181;-89
2023/01/11 16:17:37;;;;;;;12.10;6.53;;;;;;;;;;6128528;23;20156;-89
2023/01/11 16:20:44;;;;;;;19.30;7.25;;;;;;;;;;6127804;23;20550;-91
2023/01/11 16:24:03;;;;;;;17.77;6.53;;;;;;;;;;6127738;23;20180;-90
2023/01/11 16:27:09;;;;;;;15.68;7.70;;;;;;;;;;6126314;23;20545;-89
2023/01/11 16:30:16;;;;;;;14.60;7.03;;;;;;;;;;6124732;23;20169;-89
2023/01/11 16:33:24;;;;;;;12.93;6.50;;;;;;;;;;6126020;23;20153;-91
2023/01/11 16:36:29;;;;;;;21.73;10.10;;;;;;;;;;6126182;23;20189;-89
2023/01/11 16:39:36;;;;;;;10.70;6.78;;;;;;;;;;6126490;23;20493;-90
2023/01/11 16:42:43;;;;;;;24.00;10.05;;;;;;;;;;6127327;23;20168;-89
2023/01/11 16:45:50;;;;;;;34.67;12.65;;;;;;;;;;6124489;23;20200;-88
2023/01/11 16:49:09;;;;;;;25.85;10.70;;;;;;;;;;6126363;23;20173;-89
2023/01/11 16:52:38;;;;;;;23.73;11.48;;;;;;;;;;6124804;23;20180;-87
2023/01/11 16:55:53;;;;;;;29.55;13.77;;;;;;;;;;6126929;23;20233;-88
2023/01/11 16:59:07;;;;;;;23.55;11.93;;;;;;;;;;6127302;23;20173;-89
2023/01/11 17:02:28;;;;;;;20.67;10.95;;;;;;;;;;6128376;23;20212;-89
2023/01/11 17:05:34;;;;;;;19.83;9.50;;;;;;;;;;6125386;23;20197;-90
2023/01/11 17:08:41;;;;;;;17.75;8.13;;;;;;;;;;6126516;23;20169;-88
2023/01/11 17:11:49;;;;;;;15.73;8.70;;;;;;;;;;6128275;23;20172;-89
2023/01/11 17:15:03;;;;;;;20.75;9.45;;;;;;;;;;6127735;23;20225;-88
2023/01/11 17:18:09;;;;;;;16.30;9.27;;;;;;;;;;6126272;23;20169;-86
2023/01/11 17:21:17;;;;;;;24.63;9.70;;;;;;;;;;6126859;23;20189;-88
2023/01/11 17:24:27;;;;;;;24.48;10.68;;;;;;;;;;6128223;23;20213;-88
2023/01/11 17:27:36;;;;;;;22.63;10.88;;;;;;;;;;6127202;23;20176;-87
2023/01/11 17:30:44;;;;;;;17.10;9.70;;;;;;;;;;6124813;23;20170;-88
2023/01/11 17:34:00;;;;;;;18.37;9.33;;;;;;;;;;6124556;23;20173;-88
2023/01/11 17:37:12;;;;;;;19.13;9.23;;;;;;;;;;6125474;23;20182;-89
2023/01/11 17:40:22;;;;;;;17.75;9.35;;;;;;;;;;6126828;23;20214;-90
2023/01/11 17:47:07;;;;;;;20.10;10.63;;;;;;;;;;6083850;23;20240;-87
2023/01/11 17:50:20;;;;;;;15.38;9.10;;;;;;;;;;6124145;23;20169;-88
2023/01/11 17:53:27;;;;;;;19.67;9.77;;;;;;;;;;6125910;23;20165;-91
2023/01/11 17:56:37;;;;;;;25.48;11.23;;;;;;;;;;6125232;23;20261;-89
2023/01/11 17:59:44;;;;;;;23.00;10.50;;;;;;;;;;6125410;23;20177;-90
2023/01/11 18:02:51;;;;;;;17.30;8.80;;;;;;;;;;6125724;23;20188;-90
2023/01/11 18:05:56;;;;;;;17.52;8.50;;;;;;;;;;6126835;23;20181;-88
2023/01/11 18:09:03;;;;;;;18.33;7.03;;;;;;;;;;6130023;23;20169;-91
2023/01/11 18:12:13;;;;;;;14.10;7.53;;;;;;;;;;6127507;23;20168;-90
2023/01/11 18:15:31;;;;;;;17.05;9.38;;;;;;;;;;6127994;23;20173;-87
2023/01/11 18:18:41;;;;;;;15.27;7.40;;;;;;;;;;6127579;23;20622;-89
2023/01/11 18:21:52;;;;;;;26.17;11.97;;;;;;;;;;6129013;23;20502;-89
2023/01/11 18:24:59;;;;;;;20.07;9.97;;;;;;;;;;6128893;23;20192;-91
2023/01/11 18:28:21;;;;;;;37.85;18.17;;;;;;;;;;6129862;23;20173;-88
2023/01/11 18:31:33;;;;;;;24.92;13.13;;;;;;;;;;6126254;23;20176;-87
2023/01/11 18:34:45;;;;;;;20.63;10.93;;;;;;;;;;6124788;23;20236;-88
2023/01/11 18:37:52;;;;;;;20.27;9.60;;;;;;;;;;6125988;23;20237;-89
2023/01/11 18:42:05;;;;;;;38.87;21.90;;;;;;;;;;6125461;23;20169;-87
2023/01/11 18:44:24;;;;;;;30.13;15.17;;;;;;;;;;6126729;23;20244;-90
2023/01/11 18:47:31;;;;;;;20.17;9.53;;;;;;;;;;6124006;23;20177;-89
2023/01/11 18:54:24;;;;;;;21.90;10.70;;;;;;;;;;6123292;23;20202;-88
2023/01/11 18:57:29;;;;;;;22.80;10.70;;;;;;;;;;6126556;23;20165;-88
2023/01/11 19:00:35;;;;;;;70.97;27.57;;;;;;;;;;6126001;23;20165;-88
2023/01/11 19:03:42;;;;;;;32.93;15.30;;;;;;;;;;6125118;23;20197;-90
2023/01/11 19:06:48;;;;;;;27.95;13.65;;;;;;;;;;6125622;23;20245;-89
2023/01/11 19:09:54;;;;;;;28.73;15.07;;;;;;;;;;6125732;23;20411;-88
2023/01/11 19:13:00;;;;;;;22.92;11.68;;;;;;;;;;6127201;23;20191;-91
2023/01/11 19:16:06;;;;;;;27.75;12.65;;;;;;;;;;6123202;23;20685;-89
2023/01/11 19:19:12;;;;;;;30.75;15.27;;;;;;;;;;6124644;23;20160;-89